Time;durP1;ratioP1;P1;durP2;ratioP2;P2;SDS_P1;SDS_P2;PMS_P1;PMS_P2;Temp;Humidity;BMP_temperature;BMP_pressure;BME280_temperature;BME280_humidity;BME280_pressure;Samples;Min_cycle;Max_cycle;Signal;HPM_P1;HPM_P2
2023/01/20 00:00:42;;;;;;;;;;;;;;;10.62;46.85;100003.69;4823809;28;128277;-66
2023/01/20 00:03:08;;;;;;;;;;;;;;;10.63;46.99;100005.31;4828052;28;127726;-66
2023/01/20 00:05:34;;;;;;;;;;;;;;;10.63;46.89;99997.22;4837250;28;121806;-66
2023/01/20 00:08:00;;;;;;;;;;;;;;;10.64;46.61;100006.91;4838114;28;128281;-67
2023/01/20 00:10:26;;;;;;;;;;;;;;;10.64;46.68;100011.50;4819260;28;128243;-66
2023/01/20 00:12:52;;;;;;;;;;;;;;;10.64;47.07;100012.31;4823539;28;126309;-66
2023/01/20 00:15:17;;;;;;;;;;;;;;;10.64;46.85;100019.59;4838608;28;105849;-65
2023/01/20 00:17:43;;;;;;;;;;;;;;;10.65;47.17;100015.81;4842299;28;98307;-65
2023/01/20 00:20:11;;;;;;;;;;;;;;;10.64;46.82;100019.59;4839484;28;127279;-65
2023/01/20 00:22:41;;;;;;;;;;;;;;;10.65;47.39;100022.03;4825666;28;98124;-66
2023/01/20 00:25:10;;;;;;;;;;;;;;;10.66;47.11;100030.91;4845539;28;97817;-65
2023/01/20 00:27:36;;;;;;;;;;;;;;;10.66;46.71;100031.72;4848808;28;98446;-66
2023/01/20 00:30:02;;;;;;;;;;;;;;;10.66;46.88;100030.91;4842902;28;128060;-65
2023/01/20 00:32:28;;;;;;;;;;;;;;;10.66;47.11;100026.31;4840046;28;125011;-66
2023/01/20 00:34:54;;;;;;;;;;;;;;;10.67;47.02;100030.63;4843155;28;105010;-66
2023/01/20 00:37:20;;;;;;;;;;;;;;;10.66;47.07;100034.41;4843689;28;127889;-66
2023/01/20 00:39:46;;;;;;;;;;;;;;;10.68;46.87;100034.13;4844489;28;128331;-65
2023/01/20 00:42:12;;;;;;;;;;;;;;;10.68;46.80;100045.69;4820298;28;127872;-66
2023/01/20 00:44:38;;;;;;;;;;;;;;;10.68;47.26;100044.91;4826074;28;122701;-64
2023/01/20 00:47:03;;;;;;;;;;;;;;;10.69;46.87;100046.50;4826958;28;127783;-65
2023/01/20 00:49:29;;;;;;;;;;;;;;;10.71;46.60;100055.13;4832315;28;118597;-66
2023/01/20 00:51:55;;;;;;;;;;;;;;;10.72;47.07;100059.44;4851873;28;127454;-65
2023/01/20 00:54:21;;;;;;;;;;;;;;;10.70;47.12;100054.34;4825647;28;121307;-66
2023/01/20 00:56:47;;;;;;;;;;;;;;;10.71;46.95;100055.13;4825184;28;126897;-66
2023/01/20 00:59:13;;;;;;;;;;;;;;;10.71;46.83;100060.53;4843602;28;128114;-65
2023/01/20 01:01:39;;;;;;;;;;;;;;;10.72;47.00;100070.22;4813442;28;126865;-66
2023/01/20 01:04:05;;;;;;;;;;;;;;;10.70;47.19;100075.91;4827390;28;121215;-66
2023/01/20 01:06:31;;;;;;;;;;;;;;;10.69;46.70;100078.84;4821055;28;99178;-66
2023/01/20 01:08:57;;;;;;;;;;;;;;;10.68;47.11;100078.06;4843806;28;128347;-67
2023/01/20 01:11:23;;;;;;;;;;;;;;;10.67;46.98;100084.53;4854851;28;98110;-67
2023/01/20 01:13:49;;;;;;;;;;;;;;;10.67;46.78;100089.13;4821763;28;112391;-67
2023/01/20 01:16:15;;;;;;;;;;;;;;;10.66;47.08;100085.63;4841290;28;98133;-67
2023/01/20 01:18:41;;;;;;;;;;;;;;;10.66;46.74;100087.50;4829203;28;98118;-66
2023/01/20 01:21:12;;;;;;;;;;;;;;;10.65;47.11;100093.97;4842236;28;103660;-65
2023/01/20 01:23:38;;;;;;;;;;;;;;;10.65;47.08;100094.81;4828415;28;97864;-66
2023/01/20 01:26:04;;;;;;;;;;;;;;;10.66;46.71;100095.59;4831477;28;117855;-65
2023/01/20 01:28:30;;;;;;;;;;;;;;;10.66;46.84;100098.31;4829940;28;123529;-66
2023/01/20 01:31:00;;;;;;;;;;;;;;;10.65;47.23;100102.06;4838565;28;106706;-65
2023/01/20 01:33:27;;;;;;;;;;;;;;;10.65;47.23;100107.44;4828749;28;98303;-65
2023/01/20 01:36:00;;;;;;;;;;;;;;;10.66;46.82;100111.78;4843904;28;98367;-66
2023/01/20 01:38:26;;;;;;;;;;;;;;;10.65;46.83;100110.13;4843122;28;112104;-66
2023/01/20 01:40:52;;;;;;;;;;;;;;;10.66;47.17;100111.78;4816466;28;117118;-66
2023/01/20 01:43:23;;;;;;;;;;;;;;;10.65;46.91;100113.66;4833236;28;98035;-66
2023/01/20 01:45:49;;;;;;;;;;;;;;;10.64;46.81;100112.03;4813425;28;98482;-66
2023/01/20 01:48:15;;;;;;;;;;;;;;;10.66;47.22;100117.16;4848938;28;98079;-66
2023/01/20 01:50:48;;;;;;;;;;;;;;;10.66;46.82;100125.25;4813485;28;130260;-66
2023/01/20 01:53:14;;;;;;;;;;;;;;;10.68;46.78;100136.56;4830349;28;113133;-66
2023/01/20 01:55:42;;;;;;;;;;;;;;;10.67;47.00;100134.94;4827534;28;104440;-65
2023/01/20 01:58:09;;;;;;;;;;;;;;;10.66;46.82;100138.72;4829645;28;120858;-65
2023/01/20 02:00:36;;;;;;;;;;;;;;;10.66;46.99;100139.53;4829220;28;120566;-65
2023/01/20 02:03:02;;;;;;;;;;;;;;;10.67;46.94;100151.94;4825277;28;115652;-66
2023/01/20 02:05:28;;;;;;;;;;;;;;;10.67;46.82;100143.84;4824100;28;127345;-66
2023/01/20 02:07:53;;;;;;;;;;;;;;;10.66;46.83;100153.00;4847887;28;127086;-66
2023/01/20 02:10:19;;;;;;;;;;;;;;;10.67;47.14;100157.31;4812654;28;127937;-66
2023/01/20 02:12:48;;;;;;;;;;;;;;;10.67;47.11;100160.00;4846938;28;98203;-66
2023/01/20 02:15:14;;;;;;;;;;;;;;;10.68;47.20;100158.13;4811629;28;98427;-66
2023/01/20 02:17:46;;;;;;;;;;;;;;;10.68;46.84;100158.91;4824856;28;119918;-66
2023/01/20 02:20:38;;;;;;;;;;;;;;;10.68;46.82;100161.63;4843953;28;98093;-65
2023/01/20 02:23:19;;;;;;;;;;;;;;;10.69;46.86;100162.41;4839233;28;97865;-66
2023/01/20 02:25:51;;;;;;;;;;;;;;;10.71;47.27;100173.75;4846834;28;98027;-66
2023/01/20 02:28:35;;;;;;;;;;;;;;;10.69;47.29;100167.81;4839525;28;98675;-66
2023/01/20 02:31:39;;;;;;;;;;;;;;;10.71;46.66;100171.06;4825796;28;98346;-66
2023/01/20 02:34:26;;;;;;;;;;;;;;;10.72;46.74;100176.16;4851225;28;98013;-66
2023/01/20 02:37:06;;;;;;;;;;;;;;;10.72;47.08;100176.16;4823528;28;127620;-67
2023/01/20 02:39:49;;;;;;;;;;;;;;;10.72;47.13;100176.16;4841656;28;98835;-66
2023/01/20 02:42:41;;;;;;;;;;;;;;;10.73;47.09;100175.09;4824591;28;125102;-66
2023/01/20 02:45:30;;;;;;;;;;;;;;;10.74;46.74;100175.91;4824955;28;99685;-65
2023/01/20 02:48:14;;;;;;;;;;;;;;;10.75;46.83;100180.19;4836863;28;98884;-66
2023/01/20 02:50:44;;;;;;;;;;;;;;;10.75;47.19;100178.31;4850058;28;124339;-66
2023/01/20 02:53:11;;;;;;;;;;;;;;;10.75;47.07;100181.00;4824560;28;98035;-66
2023/01/20 02:55:39;;;;;;;;;;;;;;;10.76;46.83;100176.41;4839771;28;117016;-67
2023/01/20 02:58:32;;;;;;;;;;;;;;;10.76;46.99;100179.91;4821263;28;125940;-67
2023/01/20 03:01:07;;;;;;;;;;;;;;;10.77;47.26;100183.44;4839926;28;125503;-66
2023/01/20 03:03:34;;;;;;;;;;;;;;;10.78;46.80;100190.44;4823125;28;102893;-66
2023/01/20 03:06:02;;;;;;;;;;;;;;;10.78;46.90;100193.13;4834581;28;104361;-66
2023/01/20 03:08:30;;;;;;;;;;;;;;;10.77;47.26;100192.34;4830458;28;119286;-66
2023/01/20 03:10:59;;;;;;;;;;;;;;;10.77;47.10;100192.34;4821384;28;98896;-67
2023/01/20 03:13:28;;;;;;;;;;;;;;;10.78;46.77;100195.84;4817016;28;119699;-66
2023/01/20 03:16:05;;;;;;;;;;;;;;;10.78;47.22;100193.94;4834987;28;99472;-66
2023/01/20 03:18:32;;;;;;;;;;;;;;;10.78;47.19;100193.13;4811975;28;120635;-65
2023/01/20 03:20:58;;;;;;;;;;;;;;;10.78;47.00;100202.03;4829184;28;99524;-66
2023/01/20 03:23:25;;;;;;;;;;;;;;;10.79;46.64;100205.53;4825900;28;125892;-66
2023/01/20 03:25:51;;;;;;;;;;;;;;;10.79;46.82;100202.84;4841035;28;101125;-66
2023/01/20 03:28:17;;;;;;;;;;;;;;;10.79;46.67;100203.63;4823358;28;128674;-66
2023/01/20 03:30:43;;;;;;;;;;;;;;;10.80;46.95;100209.84;4813946;28;118487;-67
2023/01/20 03:33:09;;;;;;;;;;;;;;;10.80;47.09;100213.34;4835245;28;128222;-67
2023/01/20 03:35:35;;;;;;;;;;;;;;;10.81;46.85;100216.88;4821327;28;121921;-67
2023/01/20 03:38:00;;;;;;;;;;;;;;;10.79;46.78;100214.41;4838167;28;127183;-66
2023/01/20 03:40:29;;;;;;;;;;;;;;;10.82;46.72;100216.56;4821669;28;128508;-66
2023/01/20 03:43:01;;;;;;;;;;;;;;;10.82;46.80;100218.47;4821227;28;125268;-67
2023/01/20 03:45:54;;;;;;;;;;;;;;;10.84;47.37;100228.97;4840872;28;98229;-66
2023/01/20 03:48:41;;;;;;;;;;;;;;;10.84;47.00;100228.97;4824257;28;103427;-67
2023/01/20 03:51:14;;;;;;;;;;;;;;;10.84;47.09;100228.97;4822279;28;128038;-66
2023/01/20 03:54:08;;;;;;;;;;;;;;;10.85;47.07;100233.31;4836952;28;99856;-66
2023/01/20 03:56:57;;;;;;;;;;;;;;;10.82;46.78;100232.75;4831325;28;119327;-67
2023/01/20 03:59:22;;;;;;;;;;;;;;;10.85;46.80;100241.38;4830706;28;99056;-67
2023/01/20 04:01:48;;;;;;;;;;;;;;;10.84;47.07;100248.66;4810373;28;98589;-67
2023/01/20 04:04:16;;;;;;;;;;;;;;;10.85;46.89;100244.88;4835535;28;126724;-66
2023/01/20 04:06:42;;;;;;;;;;;;;;;10.86;47.00;100248.38;4809665;28;98044;-66
2023/01/20 04:09:10;;;;;;;;;;;;;;;10.85;46.93;100247.59;4825670;28;98372;-66
2023/01/20 04:11:36;;;;;;;;;;;;;;;10.86;47.27;100246.50;4823134;28;105407;-66
2023/01/20 04:14:01;;;;;;;;;;;;;;;10.86;46.80;100257.28;4836912;28;126990;-66
2023/01/20 04:16:27;;;;;;;;;;;;;;;10.87;47.12;100261.59;4822781;28;104918;-66
2023/01/20 04:18:53;;;;;;;;;;;;;;;10.87;47.15;100264.28;4822715;28;128340;-65
2023/01/20 04:21:29;;;;;;;;;;;;;;;10.88;46.78;100267.78;4844370;28;98954;-65
2023/01/20 04:24:01;;;;;;;;;;;;;;;10.87;47.27;100272.38;4837225;28;98062;-65
2023/01/20 04:26:27;;;;;;;;;;;;;;;10.88;47.21;100273.19;4843423;28;97989;-65
2023/01/20 04:28:53;;;;;;;;;;;;;;;10.88;46.97;100268.59;4837317;28;128359;-66
2023/01/20 04:31:19;;;;;;;;;;;;;;;10.90;46.77;100271.03;4836608;28;126904;-66
2023/01/20 04:33:45;;;;;;;;;;;;;;;10.88;46.79;100273.97;4827883;28;124139;-66
2023/01/20 04:36:11;;;;;;;;;;;;;;;10.88;46.70;100271.28;4821504;28;120944;-66
2023/01/20 04:38:37;;;;;;;;;;;;;;;10.90;46.89;100279.13;4824735;28;128761;-66
2023/01/20 04:41:03;;;;;;;;;;;;;;;10.90;46.91;100269.13;4842907;28;128817;-66
2023/01/20 04:43:28;;;;;;;;;;;;;;;10.90;47.17;100276.44;4823066;28;106348;-66
2023/01/20 04:45:54;;;;;;;;;;;;;;;10.91;46.72;100281.53;4825733;28;122351;-65
2023/01/20 04:48:20;;;;;;;;;;;;;;;10.91;46.93;100284.22;4822938;28;128415;-65
2023/01/20 04:50:46;;;;;;;;;;;;;;;10.91;47.02;100289.63;4808716;28;128640;-66
2023/01/20 04:53:15;;;;;;;;;;;;;;;10.92;46.98;100296.63;4826567;28;117292;-66
2023/01/20 04:55:41;;;;;;;;;;;;;;;10.92;47.16;100293.13;4839093;28;97957;-66
2023/01/20 04:58:09;;;;;;;;;;;;;;;10.92;47.08;100301.22;4838000;28;118970;-66
2023/01/20 05:00:34;;;;;;;;;;;;;;;10.92;47.11;100295.81;4810623;28;98395;-66
2023/01/20 05:03:01;;;;;;;;;;;;;;;10.93;47.05;100300.97;4820970;28;128372;-65
2023/01/20 05:05:27;;;;;;;;;;;;;;;10.92;47.13;100296.63;4839653;28;98129;-66
2023/01/20 05:07:54;;;;;;;;;;;;;;;10.93;47.23;100305.56;4821191;28;126502;-66
2023/01/20 05:10:20;;;;;;;;;;;;;;;10.93;46.71;100302.84;4822040;28;98381;-66
2023/01/20 05:12:46;;;;;;;;;;;;;;;10.94;47.08;100307.16;4837221;28;126509;-66
2023/01/20 05:15:12;;;;;;;;;;;;;;;10.94;46.71;100312.56;4840870;28;103747;-67
2023/01/20 05:17:37;;;;;;;;;;;;;;;10.93;47.00;100311.75;4836045;28;127995;-66
2023/01/20 05:20:04;;;;;;;;;;;;;;;10.94;47.13;100320.63;4804171;28;128320;-65
2023/01/20 05:22:32;;;;;;;;;;;;;;;10.94;47.06;100321.44;4822302;28;98783;-65
2023/01/20 05:24:58;;;;;;;;;;;;;;;10.94;47.12;100317.94;4823172;28;98374;-66
2023/01/20 05:27:24;;;;;;;;;;;;;;;10.94;47.10;100329.53;4823693;28;98662;-65
2023/01/20 05:29:50;;;;;;;;;;;;;;;10.93;46.82;100327.94;4821594;28;125703;-66
2023/01/20 05:32:16;;;;;;;;;;;;;;;10.94;47.00;100332.22;4838393;28;127306;-66
2023/01/20 05:34:42;;;;;;;;;;;;;;;10.94;47.12;100339.53;4809608;28;124686;-66
2023/01/20 05:37:08;;;;;;;;;;;;;;;10.93;47.07;100341.41;4823283;28;128020;-65
2023/01/20 05:39:34;;;;;;;;;;;;;;;10.94;47.21;100348.41;4808638;28;128635;-66
2023/01/20 05:42:00;;;;;;;;;;;;;;;10.94;47.00;100350.31;4840654;28;129979;-66
2023/01/20 05:44:26;;;;;;;;;;;;;;;10.94;47.12;100355.69;4807921;28;97964;-66
2023/01/20 05:46:52;;;;;;;;;;;;;;;10.94;47.14;100353.81;4811436;28;128656;-66
2023/01/20 05:49:18;;;;;;;;;;;;;;;10.95;46.76;100357.31;4837483;28;128562;-66
2023/01/20 05:51:44;;;;;;;;;;;;;;;10.94;46.79;100356.50;4839356;28;126929;-66
2023/01/20 05:54:10;;;;;;;;;;;;;;;10.96;46.82;100361.63;4841112;28;122831;-66
2023/01/20 05:56:36;;;;;;;;;;;;;;;10.96;47.03;100361.63;4839718;28;98758;-66
2023/01/20 05:59:02;;;;;;;;;;;;;;;10.96;46.84;100367.81;4837857;28;125833;-66
2023/01/20 06:01:27;;;;;;;;;;;;;;;10.97;46.71;100376.75;4837833;28;128177;-66
2023/01/20 06:03:53;;;;;;;;;;;;;;;10.96;47.16;100365.13;4840523;28;122716;-66
2023/01/20 06:06:19;;;;;;;;;;;;;;;10.98;47.04;100372.94;4836376;28;126316;-66
2023/01/20 06:08:45;;;;;;;;;;;;;;;10.97;46.88;100379.44;4835838;28;128762;-66
2023/01/20 06:11:13;;;;;;;;;;;;;;;10.97;47.21;100379.44;4837257;28;115198;-65
2023/01/20 06:13:39;;;;;;;;;;;;;;;10.96;46.85;100378.59;4824044;28;98150;-65
2023/01/20 06:16:05;;;;;;;;;;;;;;;10.97;47.06;100388.34;4821363;28;98517;-66
2023/01/20 06:18:31;;;;;;;;;;;;;;;10.98;46.60;100389.94;4810021;28;126956;-66
2023/01/20 06:20:57;;;;;;;;;;;;;;;10.98;47.21;100394.53;4838404;28;123708;-65
2023/01/20 06:23:24;;;;;;;;;;;;;;;10.98;46.89;100389.94;4822637;28;98077;-66
2023/01/20 06:26:06;;;;;;;;;;;;;;;10.99;46.70;100402.34;4809301;28;123945;-65
2023/01/20 06:28:32;;;;;;;;;;;;;;;10.99;46.75;100394.25;4839453;28;98384;-66
2023/01/20 06:31:03;;;;;;;;;;;;;;;11.00;46.85;100395.06;4838436;28;98030;-65
2023/01/20 06:33:29;;;;;;;;;;;;;;;11.01;46.83;100405.59;4839020;28;98038;-66
2023/01/20 06:35:55;;;;;;;;;;;;;;;11.01;47.05;100404.78;4807022;28;103414;-66
2023/01/20 06:38:25;;;;;;;;;;;;;;;11.01;46.86;100410.19;4810756;28;99867;-66
2023/01/20 06:40:58;;;;;;;;;;;;;;;11.02;46.84;100409.91;4838027;28;98588;-66
2023/01/20 06:43:24;;;;;;;;;;;;;;;11.01;46.95;100412.88;4825525;28;98062;-66
2023/01/20 06:45:50;;;;;;;;;;;;;;;11.02;47.01;100417.19;4807752;28;128950;-66
2023/01/20 06:48:16;;;;;;;;;;;;;;;11.01;47.10;100416.38;4841725;28;98543;-66
2023/01/20 06:50:42;;;;;;;;;;;;;;;11.01;47.18;100416.38;4839438;28;126001;-66
2023/01/20 06:53:10;;;;;;;;;;;;;;;11.01;47.11;100426.38;4836492;28;124377;-66
2023/01/20 06:55:36;;;;;;;;;;;;;;;11.02;46.61;100434.16;4823273;28;99519;-66
2023/01/20 06:58:02;;;;;;;;;;;;;;;11.02;47.19;100430.66;4838140;28;98752;-67
2023/01/20 07:00:28;;;;;;;;;;;;;;;11.01;47.12;100437.94;4820487;28;125964;-65
2023/01/20 07:02:53;;;;;;;;;;;;;;;11.02;47.25;100452.25;4834812;28;122822;-66
2023/01/20 07:05:19;;;;;;;;;;;;;;;11.03;46.84;100437.66;4816531;28;127496;-66
2023/01/20 07:07:45;;;;;;;;;;;;;;;11.03;46.79;100445.75;4840276;28;120136;-66
2023/01/20 07:10:11;;;;;;;;;;;;;;;11.03;47.07;100446.56;4840584;28;113972;-65
2023/01/20 07:12:37;;;;;;;;;;;;;;;11.03;46.83;100449.25;4822844;28;97871;-66
2023/01/20 07:15:04;;;;;;;;;;;;;;;11.05;47.07;100454.41;4837045;28;127049;-66
2023/01/20 07:17:29;;;;;;;;;;;;;;;11.05;46.62;100468.69;4831454;28;122557;-66
2023/01/20 07:19:55;;;;;;;;;;;;;;;11.06;47.10;100474.91;4831351;28;127768;-67
2023/01/20 07:22:21;;;;;;;;;;;;;;;11.06;47.15;100467.63;4807737;28;122821;-67
2023/01/20 07:24:47;;;;;;;;;;;;;;;11.06;46.72;100475.72;4821367;28;98193;-66
2023/01/20 07:27:13;;;;;;;;;;;;;;;11.07;47.08;100474.63;4843742;28;128984;-65
2023/01/20 07:29:40;;;;;;;;;;;;;;;11.07;46.90;100477.31;4845053;28;98349;-67
2023/01/20 07:32:06;;;;;;;;;;;;;;;11.08;47.00;100472.72;4830188;28;118968;-66
2023/01/20 07:34:32;;;;;;;;;;;;;;;11.07;47.07;100480.00;4825109;28;126478;-66
2023/01/20 07:37:00;;;;;;;;;;;;;;;11.08;46.99;100480.81;4826050;28;106290;-66
2023/01/20 07:39:26;;;;;;;;;;;;;;;11.08;47.08;100488.91;4830478;28;98014;-66
2023/01/20 07:41:52;;;;;;;;;;;;;;;11.08;46.80;100494.31;4810408;28;123257;-66
2023/01/20 07:44:17;;;;;;;;;;;;;;;11.10;47.17;100494.88;4828603;28;128421;-66
2023/01/20 07:46:43;;;;;;;;;;;;;;;11.10;46.72;100489.47;4836089;28;127335;-67
2023/01/20 07:49:10;;;;;;;;;;;;;;;11.11;46.85;100501.06;4819738;28;99777;-66
2023/01/20 07:51:35;;;;;;;;;;;;;;;11.12;46.70;100508.91;4828870;28;122757;-67
2023/01/20 07:54:03;;;;;;;;;;;;;;;11.12;46.79;100508.91;4827249;28;128441;-65
2023/01/20 07:56:29;;;;;;;;;;;;;;;11.15;46.91;100518.34;4844612;28;98637;-65
2023/01/20 07:58:55;;;;;;;;;;;;;;;11.16;46.92;100518.09;4811179;28;99282;-65
2023/01/20 08:01:23;;;;;;;;;;;;;;;11.17;46.85;100521.59;4814650;28;100369;-65
2023/01/20 08:03:49;;;;;;;;;;;;;;;11.18;46.84;100517.81;4846201;28;98880;-65
2023/01/20 08:06:17;;;;;;;;;;;;;;;11.18;46.64;100524.00;4840134;28;123986;-67
2023/01/20 08:08:43;;;;;;;;;;;;;;;11.20;47.01;100531.81;4839327;28;98169;-67
2023/01/20 08:11:09;;;;;;;;;;;;;;;11.20;47.18;100538.03;4815151;28;122862;-66
2023/01/20 08:13:35;;;;;;;;;;;;;;;11.22;47.19;100535.88;4840150;28;115811;-66
2023/01/20 08:16:02;;;;;;;;;;;;;;;11.21;46.86;100542.34;4830407;28;103496;-66
2023/01/20 08:18:28;;;;;;;;;;;;;;;11.20;46.73;100545.31;4845750;28;98167;-65
2023/01/20 08:20:54;;;;;;;;;;;;;;;11.18;46.87;100542.09;4841075;28;98225;-65
2023/01/20 08:23:20;;;;;;;;;;;;;;;11.14;47.01;100543.69;4826827;28;129334;-65
2023/01/20 08:25:46;;;;;;;;;;;;;;;11.13;46.80;100547.47;4841200;28;127783;-66
2023/01/20 08:28:12;;;;;;;;;;;;;;;11.10;46.73;100551.50;4829659;28;127037;-65
2023/01/20 08:30:38;;;;;;;;;;;;;;;11.07;46.73;100552.03;4829101;28;98091;-65
2023/01/20 08:33:04;;;;;;;;;;;;;;;11.05;46.92;100563.13;4821488;28;116932;-65
2023/01/20 08:35:30;;;;;;;;;;;;;;;11.03;46.71;100569.84;4808459;28;103275;-65
2023/01/20 08:37:56;;;;;;;;;;;;;;;11.00;46.70;100579.31;4808858;28;126186;-66
2023/01/20 08:40:22;;;;;;;;;;;;;;;10.98;47.08;100575.25;4838098;28;122485;-66
2023/01/20 08:42:48;;;;;;;;;;;;;;;10.96;47.04;100574.69;4839824;28;128125;-66
2023/01/20 08:45:13;;;;;;;;;;;;;;;10.95;47.14;100573.88;4811047;28;98199;-66
2023/01/20 08:47:43;;;;;;;;;;;;;;;10.93;46.97;100573.34;4832652;28;126455;-67
2023/01/20 08:50:09;;;;;;;;;;;;;;;10.93;47.05;100578.75;4826493;28;98155;-66
2023/01/20 08:52:35;;;;;;;;;;;;;;;10.92;46.74;100585.19;4824786;28;126174;-65
2023/01/20 08:55:01;;;;;;;;;;;;;;;10.90;46.92;100584.66;4824596;28;127673;-66
2023/01/20 08:57:27;;;;;;;;;;;;;;;10.89;47.11;100583.06;4824602;28;127754;-65
2023/01/20 08:59:53;;;;;;;;;;;;;;;10.89;46.82;100587.63;4840174;28;123279;-66
2023/01/20 09:02:19;;;;;;;;;;;;;;;10.89;47.12;100593.03;4813941;28;98266;-67
2023/01/20 09:04:45;;;;;;;;;;;;;;;10.87;46.83;100597.88;4825033;28;98338;-66
2023/01/20 09:07:11;;;;;;;;;;;;;;;10.87;47.05;100603.25;4824157;28;98052;-66
2023/01/20 09:09:37;;;;;;;;;;;;;;;10.86;47.08;100607.84;4822358;28;98133;-65
2023/01/20 09:12:04;;;;;;;;;;;;;;;10.86;47.09;100610.53;4838339;28;98388;-66
2023/01/20 09:14:30;;;;;;;;;;;;;;;10.85;46.67;100614.31;4816901;28;99739;-66
2023/01/20 09:16:56;;;;;;;;;;;;;;;10.85;47.07;100616.22;4823022;28;129555;-66
2023/01/20 09:19:22;;;;;;;;;;;;;;;10.84;46.82;100619.97;4810094;28;122165;-66
2023/01/20 09:21:48;;;;;;;;;;;;;;;10.84;47.07;100626.16;4813544;28;98030;-65
2023/01/20 09:24:14;;;;;;;;;;;;;;;10.82;47.03;100634.53;4840454;28;127807;-66
2023/01/20 09:26:39;;;;;;;;;;;;;;;10.80;46.92;100630.47;4805753;28;105421;-66
2023/01/20 09:29:08;;;;;;;;;;;;;;;10.82;46.84;100625.63;4823226;28;123374;-65
2023/01/20 09:31:45;;;;;;;;;;;;;;;10.80;47.08;100633.16;4825999;28;98168;-65
2023/01/20 09:34:17;;;;;;;;;;;;;;;10.80;47.31;100627.78;4827646;28;98587;-65
2023/01/20 09:36:44;;;;;;;;;;;;;;;10.81;47.05;100637.50;4810099;28;98016;-65
2023/01/20 09:45:09;;;;;;;;;;;;;;;10.80;47.12;100635.84;4830980;28;98058;-65
2023/01/20 09:47:39;;;;;;;;;;;;;;;10.80;46.96;100633.97;4841987;28;98013;-66
2023/01/20 09:53:49;;;;;;;;;;;;;;;10.80;46.75;100633.97;4839926;28;98185;-66
2023/01/20 09:56:19;;;;;;;;;;;;;;;10.82;47.14;100633.72;4830568;28;124241;-66
2023/01/20 09:58:56;;;;;;;;;;;;;;;10.82;47.04;100639.13;4823217;28;98498;-66
2023/01/20 10:01:33;;;;;;;;;;;;;;;10.81;46.68;100637.50;4826540;28;98109;-66
2023/01/20 10:04:06;;;;;;;;;;;;;;;10.81;47.13;100637.50;4837015;28;105082;-65
2023/01/20 10:06:36;;;;;;;;;;;;;;;10.83;47.05;100638.03;4818910;28;99784;-66
2023/01/20 10:09:04;;;;;;;;;;;;;;;10.84;47.06;100639.66;4818729;28;122530;-65
2023/01/20 10:11:36;;;;;;;;;;;;;;;10.86;47.14;100639.41;4808532;28;112234;-66
2023/01/20 10:14:06;;;;;;;;;;;;;;;10.87;46.91;100638.31;4821019;28;118264;-65
2023/01/20 10:17:02;;;;;;;;;;;;;;;10.88;46.96;100637.22;4821115;28;121626;-66
2023/01/20 10:19:45;;;;;;;;;;;;;;;10.88;47.01;100638.03;4821292;28;99347;-67
2023/01/20 10:22:31;;;;;;;;;;;;;;;10.90;46.67;100635.91;4821633;28;97876;-65
2023/01/20 10:24:59;;;;;;;;;;;;;;;10.90;46.77;100630.50;4821275;28;113585;-66
2023/01/20 10:27:25;;;;;;;;;;;;;;;10.93;46.66;100634.56;4837970;28;98318;-65
2023/01/20 10:30:06;;;;;;;;;;;;;;;10.95;47.02;100637.81;4808594;28;125871;-66
2023/01/20 10:32:41;;;;;;;;;;;;;;;10.96;46.90;100639.41;4828613;28;98093;-66
2023/01/20 10:35:14;;;;;;;;;;;;;;;10.98;46.71;100643.47;4837111;28;124196;-65
2023/01/20 10:37:40;;;;;;;;;;;;;;;11.01;47.02;100636.75;4840372;28;98514;-66
2023/01/20 10:40:39;;;;;;;;;;;;;;;11.02;46.87;100641.88;4825621;28;98249;-65
2023/01/20 10:43:14;;;;;;;;;;;;;;;11.07;47.00;100641.06;4820954;28;119752;-66
2023/01/20 10:45:54;;;;;;;;;;;;;;;11.10;46.54;100640.53;4831153;28;98520;-66
2023/01/20 10:48:51;;;;;;;;;;;;;;;11.13;46.99;100642.72;4818250;28;116502;-65
2023/01/20 10:51:28;;;;;;;;;;;;;;;11.16;46.47;100642.19;4843011;28;98018;-65
2023/01/20 10:54:09;;;;;;;;;;;;;;;11.18;46.95;100642.72;4853186;28;98510;-66
2023/01/20 10:56:38;;;;;;;;;;;;;;;11.20;46.64;100647.84;4839564;28;98915;-66
2023/01/20 10:59:10;;;;;;;;;;;;;;;11.21;46.85;100649.47;4837958;28;98446;-66
2023/01/20 11:01:36;;;;;;;;;;;;;;;11.23;46.70;100650.81;4822457;28;105175;-66
2023/01/20 11:04:02;;;;;;;;;;;;;;;11.25;46.69;100650.56;4824163;28;98175;-65
2023/01/20 11:06:28;;;;;;;;;;;;;;;11.28;46.85;100666.22;4803896;28;127726;-66
2023/01/20 11:08:54;;;;;;;;;;;;;;;11.30;46.64;100658.66;4830095;28;126350;-65
2023/01/20 11:11:21;;;;;;;;;;;;;;;11.31;46.66;100663.78;4811319;28;99715;-66
2023/01/20 11:13:50;;;;;;;;;;;;;;;11.31;46.61;100660.28;4835851;28;119627;-65
2023/01/20 11:16:24;;;;;;;;;;;;;;;11.31;46.86;100665.66;4824576;28;101095;-66
2023/01/20 11:19:03;;;;;;;;;;;;;;;11.30;46.81;100677.53;4838315;28;98790;-66
2023/01/20 11:21:32;;;;;;;;;;;;;;;11.28;46.89;100675.13;4826166;28;98009;-66
2023/01/20 11:23:58;;;;;;;;;;;;;;;11.26;46.71;100677.28;4834497;28;98089;-65
2023/01/20 11:26:32;;;;;;;;;;;;;;;11.24;46.87;100684.84;4805044;28;98127;-67
2023/01/20 11:28:58;;;;;;;;;;;;;;;11.22;47.12;100686.16;4815877;28;98878;-65
2023/01/20 11:31:53;;;;;;;;;;;;;;;11.19;47.14;100686.69;4837981;28;98256;-67
2023/01/20 11:34:32;;;;;;;;;;;;;;;11.15;46.91;100694.50;4824778;28;99744;-65
2023/01/20 11:37:05;;;;;;;;;;;;;;;11.12;47.11;100696.91;4823726;28;98440;-66
2023/01/20 11:39:34;;;;;;;;;;;;;;;11.11;46.71;100690.72;4851720;28;99941;-66
2023/01/20 11:42:13;;;;;;;;;;;;;;;11.12;47.01;100702.31;4824786;28;97986;-66
2023/01/20 11:44:45;;;;;;;;;;;;;;;11.12;46.75;100705.00;4841764;28;98333;-67
2023/01/20 11:47:15;;;;;;;;;;;;;;;11.12;47.01;100705.00;4841026;28;98448;-65
2023/01/20 11:49:41;;;;;;;;;;;;;;;11.12;46.87;100707.72;4837073;28;98551;-66
2023/01/20 11:52:17;;;;;;;;;;;;;;;11.10;46.97;100718.78;4835026;28;127909;-66
2023/01/20 11:54:44;;;;;;;;;;;;;;;11.11;47.04;100720.38;4824059;28;117325;-65
2023/01/20 11:57:13;;;;;;;;;;;;;;;11.10;47.08;100715.28;4825662;28;98191;-65
2023/01/20 11:59:46;;;;;;;;;;;;;;;11.06;47.08;100720.38;4821925;28;118916;-66
2023/01/20 12:02:12;;;;;;;;;;;;;;;11.05;46.93;100722.28;4834419;28;98190;-65
2023/01/20 12:04:46;;;;;;;;;;;;;;;11.04;46.81;100723.34;4828929;28;99257;-66
2023/01/20 12:07:27;;;;;;;;;;;;;;;11.02;47.01;100733.59;4831626;28;98558;-66
2023/01/20 12:10:03;;;;;;;;;;;;;;;11.01;46.69;100723.06;4823806;28;98538;-66
2023/01/20 12:13:02;;;;;;;;;;;;;;;11.00;46.69;100729.50;4840322;28;98991;-66
2023/01/20 12:15:32;;;;;;;;;;;;;;;10.99;46.78;100736.00;4840370;28;120006;-65
2023/01/20 12:18:03;;;;;;;;;;;;;;;10.99;46.93;100741.38;4819267;28;98196;-67
2023/01/20 12:20:56;;;;;;;;;;;;;;;10.97;46.97;100744.34;4822005;28;99560;-66
2023/01/20 12:23:22;;;;;;;;;;;;;;;10.97;46.88;100744.34;4828856;28;123241;-67
2023/01/20 12:26:01;;;;;;;;;;;;;;;10.95;46.94;100748.38;4835771;28;98168;-67
2023/01/20 12:28:36;;;;;;;;;;;;;;;10.96;46.79;100752.69;4818799;28;98326;-65
2023/01/20 12:31:03;;;;;;;;;;;;;;;10.95;46.93;100754.59;4821045;28;123441;-65
2023/01/20 12:33:39;;;;;;;;;;;;;;;10.94;46.89;100752.97;4825762;28;123637;-65
2023/01/20 12:36:27;;;;;;;;;;;;;;;10.93;47.13;100755.94;4839618;28;99491;-65
2023/01/20 12:39:14;;;;;;;;;;;;;;;10.93;46.94;100745.16;4838440;28;99302;-65
2023/01/20 12:42:07;;;;;;;;;;;;;;;10.91;46.89;100758.06;4837140;28;98863;-66
2023/01/20 12:44:49;;;;;;;;;;;;;;;10.90;46.83;100759.97;4836563;28;98269;-66
2023/01/20 12:47:25;;;;;;;;;;;;;;;10.90;47.11;100764.56;4825863;28;103122;-65
2023/01/20 12:50:30;;;;;;;;;;;;;;;10.90;47.16;100769.94;4835395;28;98551;-66
2023/01/20 12:53:24;;;;;;;;;;;;;;;10.91;46.78;100779.66;4816755;28;100090;-65